createdAt,value
2022-10-18T00:00:53.859Z,99.99
2022-10-18T00:01:53.819Z,99.99
2022-10-18T00:02:54.019Z,99.99
2022-10-18T00:03:53.748Z,99.99
2022-10-18T00:04:53.749Z,99.99
2022-10-18T00:05:53.980Z,99.99
2022-10-18T00:06:53.789Z,99.99
2022-10-18T00:07:53.790Z,99.99
2022-10-18T00:08:53.820Z,99.99
2022-10-18T00:09:53.840Z,99.99
2022-10-18T00:10:53.799Z,99.99
2022-10-18T00:11:53.770Z,99.99
2022-10-18T00:12:53.963Z,99.99
2022-10-18T00:13:53.802Z,99.99
2022-10-18T00:14:54.457Z,99.99
2022-10-18T00:15:55.178Z,99.99
2022-10-18T00:16:53.799Z,99.99
2022-10-18T00:17:53.882Z,99.99
2022-10-18T00:18:54.504Z,99.99
2022-10-18T00:19:53.782Z,99.99
2022-10-18T00:20:55.299Z,99.99
2022-10-18T00:21:54.072Z,99.99
2022-10-18T00:22:54.214Z,99.99
2022-10-18T00:23:53.705Z,99.99
2022-10-18T00:24:53.591Z,99.99
2022-10-18T00:25:53.512Z,99.99
2022-10-18T00:26:53.796Z,99.99
2022-10-18T00:27:53.563Z,99.99
2022-10-18T00:28:53.662Z,99.99
2022-10-18T00:29:53.784Z,99.99
2022-10-18T00:30:54.189Z,99.99
2022-10-18T00:31:54.468Z,99.99
2022-10-18T00:32:53.475Z,99.99
2022-10-18T00:33:53.672Z,99.99
2022-10-18T00:34:53.651Z,99.99
2022-10-18T00:35:53.666Z,99.99
2022-10-18T00:36:53.865Z,99.99
2022-10-18T00:37:53.865Z,99.99
2022-10-18T00:38:54.817Z,99.99
2022-10-18T00:39:55.032Z,99.99
2022-10-18T00:40:54.496Z,99.99
2022-10-18T00:41:54.589Z,99.99
2022-10-18T00:42:54.045Z,99.99
2022-10-18T00:43:54.428Z,99.99
2022-10-18T00:44:54.112Z,99.99
2022-10-18T00:45:53.745Z,99.99
2022-10-18T00:46:54.366Z,99.99
2022-10-18T00:47:53.817Z,99.99
2022-10-18T00:49:54.319Z,99.99
2022-10-18T00:50:54.316Z,99.99
2022-10-18T00:51:54.603Z,99.99
2022-10-18T00:52:54.067Z,99.99
2022-10-18T00:53:54.060Z,99.99
2022-10-18T00:54:55.005Z,99.99
2022-10-18T00:55:54.860Z,99.99
2022-10-18T00:56:54.329Z,99.99
2022-10-18T00:58:55.001Z,99.99
2022-10-18T00:59:53.849Z,99.99
2022-10-18T01:00:53.785Z,99.99
2022-10-18T01:01:53.202Z,99.99
2022-10-18T01:02:53.158Z,99.99
2022-10-18T01:03:53.171Z,99.99
2022-10-18T01:04:53.310Z,99.99
2022-10-18T01:05:53.297Z,99.99
2022-10-18T01:06:53.314Z,99.99
2022-10-18T01:07:53.511Z,99.99
2022-10-18T01:08:53.193Z,99.99
2022-10-18T01:09:53.829Z,99.99
2022-10-18T01:10:53.391Z,99.99
2022-10-18T01:11:53.659Z,99.99
2022-10-18T01:12:53.431Z,99.99
2022-10-18T01:13:54.359Z,99.99
2022-10-18T01:14:53.847Z,99.99
2022-10-18T01:15:53.257Z,99.99
2022-10-18T01:16:53.004Z,99.99
2022-10-18T01:17:53.024Z,99.99
2022-10-18T01:18:53.079Z,99.99
2022-10-18T01:19:52.955Z,99.99
2022-10-18T01:20:52.951Z,99.99
2022-10-18T01:21:53.399Z,99.99
2022-10-18T01:22:53.352Z,99.99
2022-10-18T01:23:53.152Z,99.99
2022-10-18T01:24:53.008Z,99.99
2022-10-18T01:25:52.984Z,99.99
2022-10-18T01:26:53.000Z,99.99
2022-10-18T01:27:53.003Z,99.99
2022-10-18T01:28:53.265Z,99.99
2022-10-18T01:29:54.205Z,99.99
2022-10-18T01:30:54.135Z,99.99
2022-10-18T01:31:56.391Z,99.99
2022-10-18T01:32:53.976Z,99.99
2022-10-18T01:33:53.469Z,99.99
2022-10-18T01:34:53.826Z,99.99
2022-10-18T01:35:53.416Z,99.99
2022-10-18T01:36:54.006Z,99.99
2022-10-18T01:37:53.920Z,99.99
2022-10-18T01:38:54.549Z,99.99
2022-10-18T01:39:53.337Z,99.99
2022-10-18T01:40:53.288Z,99.99
2022-10-18T01:41:52.916Z,99.99
2022-10-18T01:42:52.920Z,99.99
2022-10-18T01:43:52.799Z,99.99
2022-10-18T01:44:53.566Z,99.99
2022-10-18T01:45:53.273Z,99.99
2022-10-18T01:46:52.820Z,99.99
2022-10-18T01:47:52.659Z,99.99
2022-10-18T01:48:52.670Z,99.99
2022-10-18T01:49:52.758Z,99.99
2022-10-18T01:50:52.648Z,99.99
2022-10-18T01:51:53.038Z,99.99
2022-10-18T01:52:52.786Z,99.99
2022-10-18T01:53:53.306Z,99.99
2022-10-18T01:54:53.446Z,99.99
2022-10-18T01:55:52.528Z,99.99
2022-10-18T01:56:52.699Z,99.99
2022-10-18T01:57:52.852Z,99.99
2022-10-18T01:58:52.659Z,99.99
2022-10-18T01:59:52.826Z,99.99
2022-10-18T02:00:53.322Z,99.99
2022-10-18T02:01:52.552Z,99.99
2022-10-18T02:02:52.520Z,99.99
2022-10-18T02:03:52.876Z,99.99
2022-10-18T02:04:53.193Z,99.99
2022-10-18T02:05:52.739Z,99.99
2022-10-18T02:06:52.420Z,99.99
2022-10-18T02:08:00.405Z,99.99
2022-10-18T02:08:53.380Z,99.99
2022-10-18T02:09:52.370Z,99.99
2022-10-18T02:10:52.362Z,99.99
2022-10-18T02:11:52.363Z,99.99
2022-10-18T02:12:52.333Z,99.99
2022-10-18T02:13:52.321Z,99.99
2022-10-18T02:14:52.311Z,99.99
2022-10-18T02:15:52.325Z,99.99
2022-10-18T02:16:52.291Z,99.99
2022-10-18T02:17:52.274Z,99.99
2022-10-18T02:18:52.294Z,99.99
2022-10-18T02:19:52.255Z,99.99
2022-10-18T02:20:52.245Z,99.99
2022-10-18T02:21:52.233Z,99.99
2022-10-18T02:22:52.252Z,99.99
2022-10-18T02:23:52.213Z,99.99
2022-10-18T02:24:52.203Z,99.99
2022-10-18T02:25:52.185Z,99.99
2022-10-18T02:26:52.185Z,99.99
2022-10-18T02:27:52.163Z,99.99
2022-10-18T02:28:52.186Z,99.99
2022-10-18T02:29:52.144Z,99.99
2022-10-18T02:30:52.135Z,99.99
2022-10-18T02:31:52.126Z,99.99
2022-10-18T02:32:52.274Z,99.99
2022-10-18T02:33:52.126Z,99.99
2022-10-18T02:34:52.097Z,99.99
2022-10-18T02:35:52.083Z,99.99
2022-10-18T02:36:52.166Z,99.99
2022-10-18T02:37:52.265Z,99.99
2022-10-18T02:38:52.066Z,99.99
2022-10-18T02:39:52.203Z,99.99
2022-10-18T02:40:52.026Z,99.99
2022-10-18T02:41:52.174Z,99.99
2022-10-18T02:42:52.106Z,99.99
2022-10-18T02:43:52.011Z,99.99
2022-10-18T02:44:52.137Z,99.99
2022-10-18T02:45:51.966Z,99.99
2022-10-18T02:46:52.141Z,99.99
2022-10-18T02:47:51.949Z,99.99
2022-10-18T02:48:51.959Z,99.99
2022-10-18T02:49:51.927Z,99.99
2022-10-18T02:50:51.917Z,99.99
2022-10-18T02:51:51.908Z,99.99
2022-10-18T02:52:51.898Z,99.99
2022-10-18T02:53:51.879Z,99.99
2022-10-18T02:54:51.896Z,99.99
2022-10-18T02:55:51.859Z,99.99
2022-10-18T02:56:51.849Z,99.99
2022-10-18T02:57:51.842Z,99.99
2022-10-18T02:58:51.849Z,99.99
2022-10-18T02:59:51.840Z,99.99
2022-10-18T03:00:51.811Z,99.99
2022-10-18T03:01:51.824Z,99.99
2022-10-18T03:02:51.788Z,99.99
2022-10-18T03:03:51.771Z,99.99
2022-10-18T03:04:51.782Z,99.99
2022-10-18T03:05:51.750Z,99.99
2022-10-18T03:06:51.742Z,99.99
2022-10-18T03:07:51.731Z,99.99
2022-10-18T03:08:51.721Z,99.99
2022-10-18T03:09:51.731Z,99.99
2022-10-18T03:10:51.731Z,99.99
2022-10-18T03:11:51.693Z,99.99
2022-10-18T03:12:51.672Z,99.99
2022-10-18T03:13:51.667Z,99.99
2022-10-18T03:14:51.650Z,99.99
2022-10-18T03:15:51.642Z,99.99
2022-10-18T03:16:51.653Z,99.99
2022-10-18T03:17:51.622Z,99.99
2022-10-18T03:18:51.633Z,99.99
2022-10-18T03:19:51.600Z,99.99
2022-10-18T03:20:51.583Z,99.99
2022-10-18T03:21:51.604Z,99.99
2022-10-18T03:22:51.563Z,99.99
2022-10-18T03:23:51.554Z,99.99
2022-10-18T03:24:51.541Z,99.99
2022-10-18T03:25:51.533Z,99.99
2022-10-18T03:26:51.543Z,99.99
2022-10-18T03:27:51.512Z,99.99
2022-10-18T03:28:51.510Z,99.99
2022-10-18T03:29:51.487Z,99.99
2022-10-18T03:30:51.476Z,99.99
2022-10-18T03:31:51.465Z,99.99
2022-10-18T03:32:51.476Z,99.99
2022-10-18T03:33:51.445Z,99.99
2022-10-18T03:34:51.443Z,99.99
2022-10-18T03:35:51.450Z,99.99
2022-10-18T03:36:51.409Z,99.99
2022-10-18T03:37:51.398Z,99.99
2022-10-18T03:38:51.406Z,99.99
2022-10-18T03:39:51.378Z,99.99
2022-10-18T03:40:51.372Z,99.99
2022-10-18T03:41:51.377Z,99.99
2022-10-18T03:42:51.346Z,99.99
2022-10-18T03:43:51.340Z,99.99
2022-10-18T03:44:51.318Z,99.99
2022-10-18T03:45:51.317Z,99.99
2022-10-18T03:46:51.329Z,99.99
2022-10-18T03:47:51.290Z,99.99
2022-10-18T03:48:51.278Z,99.99
2022-10-18T03:49:54.599Z,99.99
2022-10-18T03:50:52.259Z,99.99
2022-10-18T03:51:51.269Z,99.99
2022-10-18T03:52:51.230Z,99.99
2022-10-18T03:53:51.227Z,99.99
2022-10-18T03:54:51.210Z,99.99
2022-10-18T03:55:51.201Z,99.99
2022-10-18T03:56:51.212Z,99.99
2022-10-18T03:57:51.181Z,99.99
2022-10-18T03:58:51.170Z,99.99
2022-10-18T03:59:51.162Z,99.99
2022-10-18T04:00:51.150Z,99.99
2022-10-18T04:01:51.205Z,99.99
2022-10-18T04:02:53.492Z,99.99
2022-10-18T04:03:51.111Z,99.99
2022-10-18T04:04:51.102Z,99.99
2022-10-18T04:05:51.092Z,99.99
2022-10-18T04:06:51.091Z,99.99
2022-10-18T04:07:51.094Z,99.99
2022-10-18T04:08:51.059Z,99.99
2022-10-18T04:09:51.051Z,99.99
2022-10-18T04:10:51.033Z,99.99
2022-10-18T04:11:51.024Z,99.99
2022-10-18T04:12:51.050Z,99.99
2022-10-18T04:13:51.011Z,99.99
2022-10-18T04:14:50.992Z,99.99
2022-10-18T04:15:50.994Z,99.99
2022-10-18T04:16:50.968Z,99.99
2022-10-18T04:17:50.965Z,99.99
2022-10-18T04:18:50.973Z,99.99
2022-10-18T04:19:50.964Z,99.99
2022-10-18T04:20:50.925Z,99.99
2022-10-18T04:21:50.915Z,99.99
2022-10-18T04:22:50.903Z,99.99
2022-10-18T04:23:50.924Z,99.99
2022-10-18T04:24:50.885Z,99.99
2022-10-18T04:25:50.882Z,99.99
2022-10-18T04:26:50.870Z,99.99
2022-10-18T04:27:50.855Z,99.99
2022-10-18T04:28:50.901Z,99.99
2022-10-18T04:29:50.830Z,99.99
2022-10-18T04:30:50.818Z,99.99
2022-10-18T04:31:50.805Z,99.99
2022-10-18T04:32:50.798Z,99.99
2022-10-18T04:33:50.807Z,99.99
2022-10-18T04:34:50.776Z,99.99
2022-10-18T04:35:50.769Z,99.99
2022-10-18T04:36:50.750Z,99.99
2022-10-18T04:37:50.748Z,99.99
2022-10-18T04:38:50.728Z,99.99
2022-10-18T04:39:53.515Z,99.99
2022-10-18T04:40:50.707Z,99.99
2022-10-18T04:41:50.696Z,99.99
2022-10-18T04:42:50.687Z,99.99
2022-10-18T04:43:50.680Z,99.99
2022-10-18T04:44:50.686Z,99.99
2022-10-18T04:45:50.678Z,99.99
2022-10-18T04:46:50.640Z,99.99
2022-10-18T04:47:50.629Z,99.99
2022-10-18T04:48:50.619Z,99.99
2022-10-18T04:49:50.628Z,99.99
2022-10-18T04:50:50.599Z,99.99
2022-10-18T04:51:50.589Z,99.99
2022-10-18T04:53:50.560Z,99.99
2022-10-18T04:54:50.579Z,99.99
2022-10-18T04:55:50.550Z,99.99
2022-10-18T04:56:50.540Z,99.99
2022-10-18T04:57:50.520Z,99.99
2022-10-18T04:58:50.512Z,99.99
2022-10-18T04:59:57.573Z,99.99
2022-10-18T05:00:50.484Z,99.99
2022-10-18T05:01:50.541Z,99.99
2022-10-18T05:02:50.475Z,99.99
2022-10-18T05:03:50.457Z,99.99
2022-10-18T05:04:50.475Z,99.99
2022-10-18T05:06:01.344Z,99.99
2022-10-18T05:06:51.424Z,99.99
2022-10-18T05:07:50.412Z,99.99
2022-10-18T05:08:50.404Z,99.99
2022-10-18T05:09:50.415Z,99.99
2022-10-18T05:10:50.385Z,99.99
2022-10-18T05:11:50.367Z,99.99
2022-10-18T05:12:50.358Z,99.99
2022-10-18T05:13:51.015Z,99.99
2022-10-18T05:14:50.362Z,99.99
2022-10-18T05:15:50.331Z,99.99
2022-10-18T05:16:50.325Z,99.99
2022-10-18T05:17:50.305Z,99.99
2022-10-18T05:18:50.295Z,99.99
2022-10-18T05:19:50.307Z,99.99
2022-10-18T05:20:50.268Z,99.99
2022-10-18T05:21:50.276Z,99.99
2022-10-18T05:22:50.249Z,99.99
2022-10-18T05:23:50.237Z,99.99
2022-10-18T05:24:50.229Z,99.99
2022-10-18T05:25:50.210Z,99.99
2022-10-18T05:26:50.209Z,99.99
2022-10-18T05:27:50.216Z,99.99
2022-10-18T05:28:50.229Z,99.99
2022-10-18T05:29:50.225Z,99.99
2022-10-18T05:30:50.161Z,99.99
2022-10-18T05:31:50.152Z,99.99
2022-10-18T05:32:50.176Z,99.99
2022-10-18T05:33:50.128Z,99.99
2022-10-18T05:34:50.119Z,99.99
2022-10-18T05:35:50.109Z,99.99
2022-10-18T05:36:50.091Z,99.99
2022-10-18T05:37:50.081Z,99.99
2022-10-18T05:38:50.101Z,99.99
2022-10-18T05:39:50.060Z,99.99
2022-10-18T05:40:50.049Z,99.99
2022-10-18T05:41:50.041Z,99.99
2022-10-18T05:42:50.051Z,99.99
2022-10-18T05:43:50.040Z,99.99
2022-10-18T05:44:50.053Z,99.99
2022-10-18T05:45:50.060Z,99.99
2022-10-18T05:46:49.990Z,99.99
2022-10-18T05:47:49.984Z,99.99
2022-10-18T05:48:49.983Z,99.99
2022-10-18T05:49:50.013Z,99.99
2022-10-18T05:50:49.941Z,99.99
2022-10-18T05:51:49.934Z,99.99
2022-10-18T05:52:49.925Z,99.99
2022-10-18T05:53:49.931Z,99.99
2022-10-18T05:54:49.903Z,99.99
2022-10-18T05:55:49.892Z,99.99
2022-10-18T05:56:49.884Z,99.99
2022-10-18T05:57:49.863Z,99.99
2022-10-18T05:58:49.873Z,99.99
2022-10-18T05:59:49.905Z,99.99
2022-10-18T06:00:49.843Z,99.99
2022-10-18T06:01:49.823Z,99.99
2022-10-18T06:02:49.851Z,99.99
2022-10-18T06:03:49.816Z,99.99
2022-10-18T06:04:49.785Z,99.99
2022-10-18T06:05:49.775Z,99.99
2022-10-18T06:06:49.766Z,99.99
2022-10-18T06:07:49.754Z,99.99
2022-10-18T06:08:49.769Z,99.99
2022-10-18T06:09:49.730Z,99.99
2022-10-18T06:10:49.725Z,99.99
2022-10-18T06:11:49.705Z,99.99
2022-10-18T06:12:49.704Z,99.99
2022-10-18T06:13:49.707Z,99.99
2022-10-18T06:14:49.685Z,99.99
2022-10-18T06:15:49.670Z,99.99
2022-10-18T06:16:49.656Z,99.99
2022-10-18T06:17:49.640Z,99.99
2022-10-18T06:18:49.637Z,99.99
2022-10-18T06:19:49.677Z,99.99
2022-10-18T06:20:49.608Z,99.99
2022-10-18T06:21:49.601Z,99.99
2022-10-18T06:22:49.598Z,99.99
2022-10-18T06:23:49.598Z,99.99
2022-10-18T06:24:51.788Z,99.99
2022-10-18T06:25:50.551Z,99.99
2022-10-18T06:26:49.549Z,99.99
2022-10-18T06:27:49.529Z,99.99
2022-10-18T06:28:49.593Z,99.99
2022-10-18T06:29:49.540Z,99.99
2022-10-18T06:30:49.499Z,99.99
2022-10-18T06:31:49.498Z,99.99
2022-10-18T06:32:49.478Z,99.99
2022-10-18T06:33:49.481Z,99.99
2022-10-18T06:34:49.479Z,99.99
2022-10-18T06:35:49.448Z,99.99
2022-10-18T06:36:49.439Z,99.99
2022-10-18T06:37:49.428Z,99.99
2022-10-18T06:38:49.411Z,99.99
2022-10-18T06:39:49.430Z,99.99
2022-10-18T06:40:49.400Z,99.99
2022-10-18T06:41:49.382Z,99.99
2022-10-18T06:42:59.939Z,99.99
2022-10-18T06:43:50.392Z,99.99
2022-10-18T06:44:49.352Z,99.99
2022-10-18T06:45:49.358Z,99.99
2022-10-18T06:46:49.329Z,99.99
2022-10-18T06:47:49.321Z,99.99
2022-10-18T06:48:49.312Z,99.99
2022-10-18T06:49:49.373Z,99.99
2022-10-18T06:50:49.282Z,99.99
2022-10-18T06:51:49.304Z,99.99
2022-10-18T06:52:49.271Z,99.99
2022-10-18T06:53:59.737Z,99.99
2022-10-18T06:54:50.241Z,99.99
2022-10-18T06:55:49.234Z,99.99
2022-10-18T06:56:49.246Z,99.99
2022-10-18T06:57:49.204Z,99.99
2022-10-18T06:58:49.259Z,99.99
2022-10-18T06:59:49.183Z,99.99
2022-10-18T07:00:49.174Z,99.99
2022-10-18T07:01:49.211Z,99.99
2022-10-18T07:02:49.183Z,99.99
2022-10-18T07:03:49.143Z,99.99
2022-10-18T07:04:49.132Z,99.99
2022-10-18T07:05:49.114Z,99.99
2022-10-18T07:06:49.107Z,99.99
2022-10-18T07:07:52.893Z,99.99
2022-10-18T07:08:50.105Z,99.99
2022-10-18T07:09:49.076Z,99.99
2022-10-18T07:10:49.065Z,99.99
2022-10-18T07:11:49.048Z,99.99
2022-10-18T07:12:49.046Z,99.99
2022-10-18T07:13:49.047Z,99.99
2022-10-18T07:14:49.024Z,99.99
2022-10-18T07:15:49.010Z,99.99
2022-10-18T07:16:48.997Z,99.99
2022-10-18T07:17:48.987Z,99.99
2022-10-18T07:18:48.998Z,99.99
2022-10-18T07:19:48.964Z,99.99
2022-10-18T07:20:48.957Z,99.99
2022-10-18T07:21:48.947Z,99.99
2022-10-18T07:22:48.937Z,99.99
2022-10-18T07:23:48.948Z,99.99
2022-10-18T07:24:48.917Z,99.99
2022-10-18T07:25:48.899Z,99.99
2022-10-18T07:26:48.892Z,99.99
2022-10-18T07:27:48.870Z,99.99
2022-10-18T07:28:48.908Z,99.99
2022-10-18T07:29:48.872Z,99.99
2022-10-18T07:30:48.840Z,99.99
2022-10-18T07:31:48.829Z,99.99
2022-10-18T07:32:48.826Z,99.99
2022-10-18T07:33:48.809Z,99.99
2022-10-18T07:34:48.820Z,99.99
2022-10-18T07:35:48.792Z,99.99
2022-10-18T07:36:48.782Z,99.99
2022-10-18T07:37:48.783Z,99.99
2022-10-18T07:38:48.761Z,99.99
2022-10-18T07:39:48.770Z,99.99
2022-10-18T07:40:48.742Z,99.99
2022-10-18T07:41:48.730Z,99.99
2022-10-18T07:42:48.710Z,99.99
2022-10-18T07:43:48.705Z,99.99
2022-10-18T07:44:48.691Z,99.99
2022-10-18T07:45:48.704Z,99.99
2022-10-18T07:46:48.673Z,99.99
2022-10-18T07:47:48.651Z,99.99
2022-10-18T07:48:48.647Z,99.99
2022-10-18T07:49:48.684Z,99.99
2022-10-18T07:50:48.661Z,99.99
2022-10-18T07:51:48.615Z,99.99
2022-10-18T07:52:48.603Z,99.99
2022-10-18T07:53:48.593Z,99.99
2022-10-18T07:55:48.574Z,99.99
2022-10-18T07:56:48.583Z,99.99
2022-10-18T07:57:48.545Z,99.99
2022-10-18T07:58:48.536Z,99.99
2022-10-18T07:59:48.523Z,99.99
2022-10-18T08:00:48.559Z,99.99
2022-10-18T08:01:48.568Z,99.99
2022-10-18T08:02:48.495Z,99.99
2022-10-18T08:03:48.485Z,99.99
2022-10-18T08:04:48.634Z,99.99
2022-10-18T08:05:48.476Z,99.99
2022-10-18T08:06:48.497Z,99.99
2022-10-18T08:07:48.435Z,99.99
2022-10-18T08:08:48.436Z,99.99
2022-10-18T08:09:48.416Z,99.99
2022-10-18T08:10:48.405Z,99.99
2022-10-18T08:11:48.407Z,99.99
2022-10-18T08:12:48.388Z,99.99
2022-10-18T08:13:48.386Z,99.99
2022-10-18T08:14:48.359Z,99.99
2022-10-18T08:15:48.348Z,99.99
2022-10-18T08:16:48.425Z,99.99
2022-10-18T08:17:48.330Z,99.99
2022-10-18T08:18:48.317Z,99.99
2022-10-18T08:19:58.496Z,99.99
2022-10-18T08:20:49.290Z,99.99
2022-10-18T08:21:48.285Z,99.99
2022-10-18T08:22:48.291Z,99.99
2022-10-18T08:23:48.259Z,99.99
2022-10-18T08:24:48.249Z,99.99
2022-10-18T08:25:48.240Z,99.99
2022-10-18T08:26:48.230Z,99.99
2022-10-18T08:27:48.241Z,99.99
2022-10-18T08:28:54.093Z,99.99
2022-10-18T08:29:49.227Z,99.99
2022-10-18T08:30:48.181Z,99.99
2022-10-18T08:31:48.196Z,99.99
2022-10-18T08:32:48.161Z,99.99
2022-10-18T08:33:48.187Z,99.99
2022-10-18T08:34:48.151Z,99.99
2022-10-18T08:35:48.133Z,99.99
2022-10-18T08:36:48.126Z,99.99
2022-10-18T08:37:48.133Z,99.74
2022-10-18T08:38:48.101Z,99.33
2022-10-18T08:39:48.083Z,99.84
2022-10-18T08:40:48.079Z,99.99
2022-10-18T08:41:48.121Z,99.99
2022-10-18T08:42:48.053Z,99.99
2022-10-18T08:43:48.064Z,99.94
2022-10-18T08:44:48.062Z,99.94
2022-10-18T08:45:48.022Z,99.84
2022-10-18T08:46:48.012Z,99.64
2022-10-18T08:47:48.001Z,99.13
2022-10-18T08:48:47.990Z,99.33
2022-10-18T08:49:47.994Z,99.18
2022-10-18T08:50:47.973Z,99.58
2022-10-18T08:51:47.956Z,99.93
2022-10-18T08:52:47.951Z,99.99
2022-10-18T08:53:47.944Z,99.99
2022-10-18T08:54:47.944Z,99.73
2022-10-18T08:55:47.913Z,99.63
2022-10-18T08:56:47.903Z,99.22
2022-10-18T08:57:47.886Z,98.42
2022-10-18T08:58:47.883Z,98.62
2022-10-18T08:59:47.924Z,98.62
2022-10-18T09:00:47.856Z,98.93
2022-10-18T09:02:47.844Z,98.72
2022-10-18T09:03:47.914Z,98.36
2022-10-18T09:04:47.837Z,98.47
2022-10-18T09:05:47.806Z,98.77
2022-10-18T09:06:47.788Z,99.02
2022-10-18T09:07:47.778Z,99.33
2022-10-18T09:08:47.798Z,99.22
2022-10-18T09:09:47.758Z,98.97
2022-10-18T09:10:47.769Z,98.87
2022-10-18T09:11:47.738Z,98.77
2022-10-18T09:12:47.728Z,99.27
2022-10-18T09:13:47.739Z,99.38
2022-10-18T09:14:47.714Z,99.27
2022-10-18T09:15:47.698Z,99.48
2022-10-18T09:16:47.682Z,99.33
2022-10-18T09:17:47.671Z,99.02
2022-10-18T09:18:47.658Z,98.82
2022-10-18T09:19:47.706Z,98.16
2022-10-18T09:20:47.647Z,98.57
2022-10-18T09:21:47.630Z,98.72
2022-10-18T09:22:47.620Z,98.82
2022-10-18T09:23:47.609Z,98.68
2022-10-18T09:24:47.610Z,98.47
2022-10-18T09:25:47.589Z,98.13
2022-10-18T09:26:47.571Z,96.76
2022-10-18T09:27:47.562Z,97.16
2022-10-18T09:28:47.631Z,97.41
2022-10-18T09:29:47.563Z,97.21
2022-10-18T09:30:47.530Z,98.02
2022-10-18T09:31:47.521Z,97.97
2022-10-18T09:32:47.516Z,96.86
2022-10-18T09:33:47.502Z,97.06
2022-10-18T09:34:47.502Z,96.96
2022-10-18T09:35:47.512Z,97.06
2022-10-18T09:36:47.464Z,97.06
2022-10-18T09:37:47.565Z,96.86
2022-10-18T09:38:47.435Z,96.86
2022-10-18T09:39:47.456Z,96.86
2022-10-18T09:40:47.424Z,96.56
2022-10-18T09:41:47.413Z,96.66
2022-10-18T09:42:47.400Z,95.95
2022-10-18T09:43:47.394Z,96.15
2022-10-18T09:44:47.377Z,95.55
2022-10-18T09:45:47.395Z,95.75
2022-10-18T09:46:47.356Z,95.25
2022-10-18T09:47:47.375Z,95.65
2022-10-18T09:48:47.326Z,96.05
2022-10-18T09:49:47.347Z,96.05
2022-10-18T09:50:47.367Z,96.05
2022-10-18T09:51:47.307Z,95.95
2022-10-18T09:52:47.286Z,95.14
2022-10-18T09:53:47.298Z,95.04
2022-10-18T09:54:47.266Z,94.74
2022-10-18T09:55:47.286Z,92.54
2022-10-18T09:56:47.277Z,92.94
2022-10-18T09:57:47.264Z,92.29
2022-10-18T09:58:47.218Z,91.34
2022-10-18T09:59:47.244Z,90.64
2022-10-18T10:00:47.198Z,90.48
2022-10-18T10:01:47.188Z,91.08
2022-10-18T10:02:47.211Z,91.63
2022-10-18T10:03:47.185Z,91.83
2022-10-18T10:04:47.162Z,91.53
2022-10-18T10:05:47.170Z,91.93
2022-10-18T10:06:47.133Z,91.69
2022-10-18T10:07:47.120Z,91.44
2022-10-18T10:08:47.140Z,91.24
2022-10-18T10:09:47.103Z,90.64
2022-10-18T10:10:47.111Z,90.37
2022-10-18T10:11:47.081Z,90.94
2022-10-18T10:12:47.081Z,90.23
2022-10-18T10:13:47.066Z,89.99
2022-10-18T10:14:47.050Z,89.03
2022-10-18T10:15:47.069Z,88.66
2022-10-18T10:16:47.031Z,89.67
2022-10-18T10:17:47.022Z,89.39
2022-10-18T10:18:47.023Z,88.94
2022-10-18T10:19:46.993Z,89.24
2022-10-18T10:20:46.980Z,88.41
2022-10-18T10:21:47.001Z,83.19
2022-10-18T10:22:46.962Z,81.56
2022-10-18T10:23:46.953Z,82.48
2022-10-18T10:24:46.945Z,84.37
2022-10-18T10:25:46.932Z,85.03
2022-10-18T10:26:46.923Z,85.94
2022-10-18T10:27:46.934Z,85.84
2022-10-18T10:28:46.955Z,85.16
2022-10-18T10:29:46.954Z,83.89
2022-10-18T10:30:46.876Z,84.39
2022-10-18T10:31:46.884Z,84.59
2022-10-18T10:32:46.847Z,84.83
2022-10-18T10:33:46.847Z,84.47
2022-10-18T10:34:46.833Z,84.97
2022-10-18T10:35:53.600Z,85.31
2022-10-18T10:36:47.826Z,85.72
2022-10-18T10:37:46.827Z,85.72
2022-10-18T10:38:46.787Z,86.48
2022-10-18T10:39:55.444Z,83.67
2022-10-18T10:40:47.758Z,79.58
2022-10-18T10:41:46.777Z,77.97
2022-10-18T10:42:46.739Z,75.09
2022-10-18T10:43:46.757Z,75.26
2022-10-18T10:44:46.720Z,73.35
2022-10-18T10:45:46.715Z,71.29
2022-10-18T10:46:46.706Z,72.05
2022-10-18T10:47:46.688Z,70.45
2022-10-18T10:48:46.704Z,67.70
2022-10-18T10:49:46.660Z,69.26
2022-10-18T10:50:46.660Z,67.50
2022-10-18T10:51:53.673Z,66.74
2022-10-18T10:52:47.632Z,65.68
2022-10-18T10:53:46.651Z,64.95
2022-10-18T10:54:51.275Z,64.50
2022-10-18T10:55:47.601Z,63.37
2022-10-18T10:56:46.591Z,62.12
2022-10-18T10:57:46.581Z,61.22
2022-10-18T10:58:46.563Z,61.79
2022-10-18T10:59:46.583Z,60.30
2022-10-18T11:00:54.364Z,61.59
2022-10-18T11:01:46.544Z,62.27
2022-10-18T11:02:59.197Z,64.09
2022-10-18T11:03:47.557Z,66.31
2022-10-18T11:04:46.506Z,64.78
2022-10-18T11:05:46.526Z,64.75
2022-10-18T11:06:46.485Z,63.92
2022-10-18T11:07:46.476Z,62.83
2022-10-18T11:09:46.456Z,65.91
2022-10-18T11:10:46.469Z,67.66
2022-10-18T11:11:46.428Z,66.44
2022-10-18T11:12:46.420Z,64.85
2022-10-18T11:13:49.986Z,63.76
2022-10-18T11:14:47.445Z,63.30
2022-10-18T11:15:46.628Z,62.24
2022-10-18T11:16:46.370Z,61.18
2022-10-18T11:17:46.426Z,60.98
2022-10-18T11:18:46.348Z,61.18
2022-10-18T11:19:46.339Z,61.48
2022-10-18T11:20:46.371Z,61.75
2022-10-18T11:21:46.350Z,63.10
2022-10-18T11:22:46.301Z,62.50
2022-10-18T11:23:46.333Z,61.64
2022-10-18T11:24:46.363Z,60.88
2022-10-18T11:25:46.368Z,62.53
2022-10-18T11:26:48.814Z,64.67
2022-10-18T11:27:47.262Z,64.22
2022-10-18T11:28:46.322Z,62.50
2022-10-18T11:29:46.284Z,60.93
2022-10-18T11:30:46.363Z,59.01
2022-10-18T11:31:46.301Z,57.53
2022-10-18T11:32:46.193Z,59.30
2022-10-18T11:34:07.666Z,60.85
2022-10-18T11:34:47.175Z,59.04
2022-10-18T11:35:46.169Z,58.57
2022-10-18T11:36:54.732Z,59.76
2022-10-18T11:37:47.180Z,60.85
2022-10-18T11:38:46.228Z,58.34
2022-10-18T11:39:46.176Z,57.95
2022-10-18T11:40:46.147Z,59.17
2022-10-18T11:41:46.153Z,58.57
2022-10-18T11:42:46.129Z,58.72
2022-10-18T11:44:01.619Z,57.17
2022-10-18T11:44:47.128Z,54.27
2022-10-18T11:45:46.077Z,54.64
2022-10-18T11:46:46.088Z,54.39
2022-10-18T11:47:46.938Z,53.23
2022-10-18T11:48:46.162Z,53.88
2022-10-18T11:49:51.391Z,55.24
2022-10-18T11:50:46.091Z,55.83
2022-10-18T11:52:03.548Z,56.36
2022-10-18T11:52:47.000Z,55.74
2022-10-18T11:53:50.957Z,56.85
2022-10-18T11:54:46.964Z,56.66
2022-10-18T11:55:46.123Z,57.65
2022-10-18T11:56:45.942Z,56.05
2022-10-18T11:57:46.143Z,54.64
2022-10-18T11:58:45.922Z,55.16
2022-10-18T11:59:45.911Z,56.04
2022-10-18T12:00:45.904Z,58.04
2022-10-18T12:01:45.885Z,56.74
2022-10-18T12:02:46.023Z,55.70
2022-10-18T12:03:45.895Z,55.53
2022-10-18T12:04:58.493Z,55.18
2022-10-18T12:05:47.695Z,54.11
2022-10-18T12:06:45.835Z,54.14
2022-10-18T12:07:45.847Z,53.38
2022-10-18T12:08:45.835Z,55.68
2022-10-18T12:09:45.898Z,55.63
2022-10-18T12:11:03.926Z,56.46
2022-10-18T12:11:47.440Z,58.17
2022-10-18T12:12:45.904Z,57.03
2022-10-18T12:13:45.988Z,56.40
2022-10-18T12:14:45.755Z,55.98
2022-10-18T12:15:45.752Z,55.73
2022-10-18T12:16:51.375Z,54.27
2022-10-18T12:17:50.076Z,54.86
2022-10-18T12:18:45.771Z,53.53
2022-10-18T12:19:45.699Z,54.10
2022-10-18T12:20:45.708Z,55.83
2022-10-18T12:21:45.680Z,56.26
2022-10-18T12:22:45.676Z,55.98
2022-10-18T12:23:45.685Z,53.95
2022-10-18T12:24:45.644Z,55.36
2022-10-18T12:25:45.633Z,54.10
2022-10-18T12:26:45.622Z,52.12
2022-10-18T12:27:45.646Z,53.82
2022-10-18T12:28:45.656Z,54.96
2022-10-18T12:29:48.042Z,55.42
2022-10-18T12:30:45.585Z,57.76
2022-10-18T12:31:45.581Z,57.58
2022-10-18T12:33:02.068Z,55.81
2022-10-18T12:33:46.576Z,55.94
2022-10-18T12:34:45.536Z,55.16
2022-10-18T12:35:45.535Z,53.89
2022-10-18T12:36:45.526Z,52.14
2022-10-18T12:37:45.535Z,49.92
2022-10-18T12:38:45.496Z,51.62
2022-10-18T12:40:05.615Z,53.78
2022-10-18T12:40:46.471Z,54.47
2022-10-18T12:41:45.469Z,56.89
2022-10-18T12:42:45.458Z,60.56
2022-10-18T12:43:45.469Z,60.09
2022-10-18T12:44:45.430Z,59.36
2022-10-18T12:45:45.430Z,58.14
2022-10-18T12:46:45.411Z,59.55
2022-10-18T12:47:45.406Z,58.51
2022-10-18T12:48:45.432Z,56.98
2022-10-18T12:49:45.380Z,54.80
2022-10-18T12:50:45.372Z,55.36
2022-10-18T12:51:45.371Z,53.51
2022-10-18T12:52:45.351Z,54.25
2022-10-18T12:53:45.343Z,56.04
2022-10-18T12:54:45.351Z,53.70
2022-10-18T12:55:45.333Z,53.53
2022-10-18T12:56:45.305Z,51.52
2022-10-18T12:57:45.300Z,51.05
2022-10-18T12:58:45.285Z,52.17